Impacts METAR Board
IDs:

KMDW - Chicago/Midway Intl, IL, US

Updated at: 1900 UTC 02 Oct 2022
Potential Impact None Slight Moderate High
Time 02/07Z 02/08Z 02/09Z 02/10Z 02/11Z 02/12Z 02/13Z 02/14Z 02/15Z 02/16Z 02/17Z 02/18Z 02/19Z
Temp59 61 61 60 60 61 61 62 63 65 65 67 68
Dewpt53 48 51 52 53 53 53 52 53 53 52 52 51
Altim30.25 30.25 30.26 30.27 30.28 30.30 30.32 30.33 30.35 30.37 30.38 30.37 30.35
VIS10 10 10 10 10 10 10 10 10 10 10 10 10
CIG-- -- -- -- 14 15 16 19 21 21 21 21 --
CoverCLRCLRCLRFEWBKNBKNBKNBKNBKNBKNBKNBKNFEW
FltCatVFRVFRVFRVFRMVFRMVFRMVFRMVFRMVFRMVFRMVFRMVFRVFR
WX--------------------------
WDir30707060607050607050104010
WSpd4 8 9 8 8 9 11 9 10 10 11 12 12
WGst-- -- -- -- -- -- -- -- -- -- -- -- --
Raw hourly METARs
KMDW 020653Z 03004KT 10SM CLR 15/12 A3025 RMK AO2 SLP239 T01500117
KMDW 020753Z 07008KT 10SM CLR 16/09 A3025 RMK AO2 SLP239 T01610089
KMDW 020853Z 07009KT 10SM CLR 16/11 A3026 RMK AO2 SLP243 T01610106 53006
KMDW 020953Z 06008KT 10SM FEW014 16/11 A3027 RMK AO2 SLP246 T01560111
KMDW 021053Z 06008KT 10SM BKN014 16/12 A3028 RMK AO2 SLP251 T01560117
KMDW 021153Z 07009KT 10SM BKN015 16/12 A3030 RMK AO2 SLP257 T01610117 10167 20144 53012
KMDW 021253Z 05011KT 10SM BKN016 16/12 A3032 RMK AO2 SLP265 T01610117
KMDW 021353Z 06009KT 10SM BKN019 17/11 A3033 RMK AO2 SLP270 T01670111
KMDW 021453Z 07010KT 10SM BKN021 17/12 A3035 RMK AO2 SLP276 T01720117 51018
KMDW 021553Z 05010KT 10SM BKN021 18/12 A3037 RMK AO2 SLP280 T01830117
KMDW 021653Z 01011KT 10SM BKN021 18/11 A3038 RMK AO2 SLP283 T01830111
KMDW 021753Z 04012KT 10SM BKN021 19/11 A3037 RMK AO2 SLP281 T01940111 10194 20161 50006
KMDW 021853Z 01012KT 10SM FEW021 20/11 A3035 RMK AO2 SLP274 T02000106



Page loaded:  19:32 UTC  |   12:32 PM Pacific  |   01:32 PM Mountain  |   02:32 PM Central  |   03:32 PM Eastern

 

ADVISORIES

FORECASTS

FORECASTS

OBSERVATIONS

USER TOOLS

ABOUT US